sensor_id;sensor_type;location;lat;lon;timestamp;temperature;humidity
1700;DHT22;847;48.058;7.810;2023-04-25T00:01:20;11.10;87.90
1700;DHT22;847;48.058;7.810;2023-04-25T00:03:48;11.00;89.20
1700;DHT22;847;48.058;7.810;2023-04-25T00:06:15;11.00;89.50
1700;DHT22;847;48.058;7.810;2023-04-25T00:08:44;11.10;90.00
1700;DHT22;847;48.058;7.810;2023-04-25T00:11:11;11.10;90.20
1700;DHT22;847;48.058;7.810;2023-04-25T00:13:37;11.20;89.60
1700;DHT22;847;48.058;7.810;2023-04-25T00:16:07;11.20;90.40
1700;DHT22;847;48.058;7.810;2023-04-25T00:18:33;11.20;90.10
1700;DHT22;847;48.058;7.810;2023-04-25T00:21:00;11.30;89.60
1700;DHT22;847;48.058;7.810;2023-04-25T00:23:28;11.30;89.20
1700;DHT22;847;48.058;7.810;2023-04-25T00:25:56;11.30;88.50
1700;DHT22;847;48.058;7.810;2023-04-25T00:28:22;11.30;88.40
1700;DHT22;847;48.058;7.810;2023-04-25T00:30:50;11.20;88.70
1700;DHT22;847;48.058;7.810;2023-04-25T00:33:17;11.30;87.90
1700;DHT22;847;48.058;7.810;2023-04-25T00:35:43;11.30;87.90
1700;DHT22;847;48.058;7.810;2023-04-25T00:38:10;11.20;88.50
1700;DHT22;847;48.058;7.810;2023-04-25T00:40:37;11.20;88.50
1700;DHT22;847;48.058;7.810;2023-04-25T00:43:05;11.20;88.20
1700;DHT22;847;48.058;7.810;2023-04-25T00:45:32;11.20;88.50
1700;DHT22;847;48.058;7.810;2023-04-25T00:48:03;11.20;88.20
1700;DHT22;847;48.058;7.810;2023-04-25T00:50:30;11.20;88.60
1700;DHT22;847;48.058;7.810;2023-04-25T00:52:58;11.20;88.90
1700;DHT22;847;48.058;7.810;2023-04-25T00:55:25;11.20;88.40
1700;DHT22;847;48.058;7.810;2023-04-25T00:57:52;11.10;88.60
1700;DHT22;847;48.058;7.810;2023-04-25T01:00:20;11.10;88.50
1700;DHT22;847;48.058;7.810;2023-04-25T01:02:47;11.20;88.40
1700;DHT22;847;48.058;7.810;2023-04-25T01:05:15;11.10;88.90
1700;DHT22;847;48.058;7.810;2023-04-25T01:07:42;11.10;89.40
1700;DHT22;847;48.058;7.810;2023-04-25T01:10:09;11.10;89.80
1700;DHT22;847;48.058;7.810;2023-04-25T01:12:36;11.00;90.20
1700;DHT22;847;48.058;7.810;2023-04-25T01:15:04;11.00;90.30
1700;DHT22;847;48.058;7.810;2023-04-25T01:17:34;11.00;90.40
1700;DHT22;847;48.058;7.810;2023-04-25T01:20:03;11.00;90.30
1700;DHT22;847;48.058;7.810;2023-04-25T01:22:31;11.00;90.50
1700;DHT22;847;48.058;7.810;2023-04-25T01:24:59;11.00;90.90
1700;DHT22;847;48.058;7.810;2023-04-25T01:27:26;11.00;90.70
1700;DHT22;847;48.058;7.810;2023-04-25T01:29:54;10.90;90.80
1700;DHT22;847;48.058;7.810;2023-04-25T01:32:21;10.80;91.10
1700;DHT22;847;48.058;7.810;2023-04-25T01:34:48;10.80;91.60
1700;DHT22;847;48.058;7.810;2023-04-25T01:37:16;10.70;91.60
1700;DHT22;847;48.058;7.810;2023-04-25T01:39:45;10.70;92.20
1700;DHT22;847;48.058;7.810;2023-04-25T01:42:12;10.60;92.10
1700;DHT22;847;48.058;7.810;2023-04-25T01:44:39;10.60;93.00
1700;DHT22;847;48.058;7.810;2023-04-25T01:47:06;10.60;93.00
1700;DHT22;847;48.058;7.810;2023-04-25T01:49:33;10.60;92.80
1700;DHT22;847;48.058;7.810;2023-04-25T01:52:00;10.60;92.60
1700;DHT22;847;48.058;7.810;2023-04-25T01:54:26;10.60;92.80
1700;DHT22;847;48.058;7.810;2023-04-25T01:56:57;10.50;93.20
1700;DHT22;847;48.058;7.810;2023-04-25T01:59:24;10.40;93.70
1700;DHT22;847;48.058;7.810;2023-04-25T02:01:51;10.40;94.40
1700;DHT22;847;48.058;7.810;2023-04-25T02:04:17;10.50;94.30
1700;DHT22;847;48.058;7.810;2023-04-25T02:06:44;10.50;94.30
1700;DHT22;847;48.058;7.810;2023-04-25T02:09:11;10.50;94.10
1700;DHT22;847;48.058;7.810;2023-04-25T02:11:38;10.50;94.30
1700;DHT22;847;48.058;7.810;2023-04-25T02:14:06;10.50;94.30
1700;DHT22;847;48.058;7.810;2023-04-25T02:16:33;10.50;94.00
1700;DHT22;847;48.058;7.810;2023-04-25T02:19:01;10.60;94.00
1700;DHT22;847;48.058;7.810;2023-04-25T02:21:28;10.60;94.10
1700;DHT22;847;48.058;7.810;2023-04-25T02:23:55;10.60;93.90
1700;DHT22;847;48.058;7.810;2023-04-25T02:26:23;10.60;93.60
1700;DHT22;847;48.058;7.810;2023-04-25T02:28:50;10.60;93.60
1700;DHT22;847;48.058;7.810;2023-04-25T02:31:18;10.60;93.50
1700;DHT22;847;48.058;7.810;2023-04-25T02:33:45;10.70;93.60
1700;DHT22;847;48.058;7.810;2023-04-25T02:36:12;10.60;93.40
1700;DHT22;847;48.058;7.810;2023-04-25T02:38:39;10.70;93.40
1700;DHT22;847;48.058;7.810;2023-04-25T02:41:06;10.70;93.30
1700;DHT22;847;48.058;7.810;2023-04-25T02:43:32;10.60;93.60
1700;DHT22;847;48.058;7.810;2023-04-25T02:45:59;10.70;93.30
1700;DHT22;847;48.058;7.810;2023-04-25T02:48:28;10.70;93.30
1700;DHT22;847;48.058;7.810;2023-04-25T02:50:54;10.70;93.30
1700;DHT22;847;48.058;7.810;2023-04-25T02:53:21;10.70;93.20
1700;DHT22;847;48.058;7.810;2023-04-25T02:55:48;10.70;93.20
1700;DHT22;847;48.058;7.810;2023-04-25T02:58:15;10.70;93.00
1700;DHT22;847;48.058;7.810;2023-04-25T03:00:42;10.70;92.60
1700;DHT22;847;48.058;7.810;2023-04-25T03:03:09;10.70;93.10
1700;DHT22;847;48.058;7.810;2023-04-25T03:05:37;10.70;93.40
1700;DHT22;847;48.058;7.810;2023-04-25T03:08:04;10.70;93.00
1700;DHT22;847;48.058;7.810;2023-04-25T03:10:30;10.70;93.30
1700;DHT22;847;48.058;7.810;2023-04-25T03:12:57;10.70;93.30
1700;DHT22;847;48.058;7.810;2023-04-25T03:15:24;10.70;92.70
1700;DHT22;847;48.058;7.810;2023-04-25T03:17:51;10.70;92.20
1700;DHT22;847;48.058;7.810;2023-04-25T03:20:17;10.70;92.30
1700;DHT22;847;48.058;7.810;2023-04-25T03:22:46;10.60;92.60
1700;DHT22;847;48.058;7.810;2023-04-25T03:25:12;10.70;93.10
1700;DHT22;847;48.058;7.810;2023-04-25T03:27:39;10.70;92.80
1700;DHT22;847;48.058;7.810;2023-04-25T03:30:07;10.70;92.70
1700;DHT22;847;48.058;7.810;2023-04-25T03:32:34;10.70;92.80
1700;DHT22;847;48.058;7.810;2023-04-25T03:35:01;10.70;93.00
1700;DHT22;847;48.058;7.810;2023-04-25T03:37:28;10.70;92.50
1700;DHT22;847;48.058;7.810;2023-04-25T03:39:56;10.70;92.40
1700;DHT22;847;48.058;7.810;2023-04-25T03:42:23;10.70;92.70
1700;DHT22;847;48.058;7.810;2023-04-25T03:44:51;10.60;93.10
1700;DHT22;847;48.058;7.810;2023-04-25T03:47:18;10.70;93.10
1700;DHT22;847;48.058;7.810;2023-04-25T03:49:45;10.70;93.00
1700;DHT22;847;48.058;7.810;2023-04-25T03:52:12;10.70;93.20
1700;DHT22;847;48.058;7.810;2023-04-25T03:54:38;10.60;92.50
1700;DHT22;847;48.058;7.810;2023-04-25T03:57:06;10.70;92.40
1700;DHT22;847;48.058;7.810;2023-04-25T03:59:33;10.70;92.50
1700;DHT22;847;48.058;7.810;2023-04-25T04:02:00;10.60;92.20
1700;DHT22;847;48.058;7.810;2023-04-25T04:04:27;10.60;92.00
1700;DHT22;847;48.058;7.810;2023-04-25T04:06:53;10.50;91.70
1700;DHT22;847;48.058;7.810;2023-04-25T04:09:20;10.30;92.20
1700;DHT22;847;48.058;7.810;2023-04-25T04:11:47;10.20;93.30
1700;DHT22;847;48.058;7.810;2023-04-25T04:14:15;10.20;93.80
1700;DHT22;847;48.058;7.810;2023-04-25T04:16:42;10.20;94.20
1700;DHT22;847;48.058;7.810;2023-04-25T04:19:09;10.10;94.40
1700;DHT22;847;48.058;7.810;2023-04-25T04:21:36;10.10;94.60
1700;DHT22;847;48.058;7.810;2023-04-25T04:24:03;10.00;95.10
1700;DHT22;847;48.058;7.810;2023-04-25T04:26:32;9.80;96.00
1700;DHT22;847;48.058;7.810;2023-04-25T04:28:59;9.70;96.40
1700;DHT22;847;48.058;7.810;2023-04-25T04:31:27;9.70;96.90
1700;DHT22;847;48.058;7.810;2023-04-25T04:33:53;9.60;97.20
1700;DHT22;847;48.058;7.810;2023-04-25T04:36:20;9.50;97.50
1700;DHT22;847;48.058;7.810;2023-04-25T04:38:50;9.50;97.80
1700;DHT22;847;48.058;7.810;2023-04-25T04:41:18;9.50;97.60
1700;DHT22;847;48.058;7.810;2023-04-25T04:43:45;9.50;98.10
1700;DHT22;847;48.058;7.810;2023-04-25T04:46:12;9.50;98.50
1700;DHT22;847;48.058;7.810;2023-04-25T04:48:41;9.40;98.50
1700;DHT22;847;48.058;7.810;2023-04-25T04:51:08;9.40;98.70
1700;DHT22;847;48.058;7.810;2023-04-25T04:53:34;9.50;99.00
1700;DHT22;847;48.058;7.810;2023-04-25T04:56:01;9.50;98.70
1700;DHT22;847;48.058;7.810;2023-04-25T04:58:28;9.50;98.90
1700;DHT22;847;48.058;7.810;2023-04-25T05:00:56;9.60;98.80
1700;DHT22;847;48.058;7.810;2023-04-25T05:03:22;9.60;98.70
1700;DHT22;847;48.058;7.810;2023-04-25T05:05:50;9.70;98.50
1700;DHT22;847;48.058;7.810;2023-04-25T05:08:17;9.70;98.40
1700;DHT22;847;48.058;7.810;2023-04-25T05:10:44;9.80;98.50
1700;DHT22;847;48.058;7.810;2023-04-25T05:13:11;9.90;98.60
1700;DHT22;847;48.058;7.810;2023-04-25T05:15:37;9.90;98.60
1700;DHT22;847;48.058;7.810;2023-04-25T05:18:04;9.90;98.40
1700;DHT22;847;48.058;7.810;2023-04-25T05:20:31;10.00;98.80
1700;DHT22;847;48.058;7.810;2023-04-25T05:22:59;10.00;98.90
1700;DHT22;847;48.058;7.810;2023-04-25T05:25:26;10.00;99.00
1700;DHT22;847;48.058;7.810;2023-04-25T05:27:53;10.00;99.00
1700;DHT22;847;48.058;7.810;2023-04-25T05:30:20;10.00;98.20
1700;DHT22;847;48.058;7.810;2023-04-25T05:32:47;10.10;97.90
1700;DHT22;847;48.058;7.810;2023-04-25T05:35:13;10.10;98.40
1700;DHT22;847;48.058;7.810;2023-04-25T05:37:40;10.00;99.00
1700;DHT22;847;48.058;7.810;2023-04-25T05:40:09;10.00;98.90
1700;DHT22;847;48.058;7.810;2023-04-25T05:42:36;10.00;99.00
1700;DHT22;847;48.058;7.810;2023-04-25T05:45:03;10.00;99.00
1700;DHT22;847;48.058;7.810;2023-04-25T05:47:30;9.90;99.00
1700;DHT22;847;48.058;7.810;2023-04-25T05:49:57;9.90;99.00
1700;DHT22;847;48.058;7.810;2023-04-25T05:52:24;9.90;99.00
1700;DHT22;847;48.058;7.810;2023-04-25T05:54:51;9.70;99.00
1700;DHT22;847;48.058;7.810;2023-04-25T05:57:23;9.70;99.00
1700;DHT22;847;48.058;7.810;2023-04-25T05:59:51;9.70;99.00
1700;DHT22;847;48.058;7.810;2023-04-25T06:02:19;9.60;99.00
1700;DHT22;847;48.058;7.810;2023-04-25T06:04:46;9.50;99.00
1700;DHT22;847;48.058;7.810;2023-04-25T06:07:13;9.40;99.00
1700;DHT22;847;48.058;7.810;2023-04-25T06:09:39;9.30;99.00
1700;DHT22;847;48.058;7.810;2023-04-25T06:12:06;9.10;99.00
1700;DHT22;847;48.058;7.810;2023-04-25T06:14:34;9.10;99.00
1700;DHT22;847;48.058;7.810;2023-04-25T06:17:02;9.20;99.00
1700;DHT22;847;48.058;7.810;2023-04-25T06:19:34;9.10;99.00
1700;DHT22;847;48.058;7.810;2023-04-25T06:22:01;9.00;99.00
1700;DHT22;847;48.058;7.810;2023-04-25T06:24:28;9.00;99.00
1700;DHT22;847;48.058;7.810;2023-04-25T06:26:55;9.00;99.00
1700;DHT22;847;48.058;7.810;2023-04-25T06:29:22;9.10;99.00
1700;DHT22;847;48.058;7.810;2023-04-25T06:31:50;9.10;99.00
1700;DHT22;847;48.058;7.810;2023-04-25T06:34:17;9.10;99.00
1700;DHT22;847;48.058;7.810;2023-04-25T06:36:43;9.10;99.00
1700;DHT22;847;48.058;7.810;2023-04-25T06:39:10;9.10;99.00
1700;DHT22;847;48.058;7.810;2023-04-25T06:41:37;9.10;99.00
1700;DHT22;847;48.058;7.810;2023-04-25T06:44:04;9.10;99.00
1700;DHT22;847;48.058;7.810;2023-04-25T06:46:31;9.10;99.00
1700;DHT22;847;48.058;7.810;2023-04-25T06:48:59;9.00;99.00
1700;DHT22;847;48.058;7.810;2023-04-25T06:51:26;9.10;99.00
1700;DHT22;847;48.058;7.810;2023-04-25T06:53:54;9.10;99.00
1700;DHT22;847;48.058;7.810;2023-04-25T06:56:21;9.10;99.00
1700;DHT22;847;48.058;7.810;2023-04-25T06:58:48;9.10;99.00
1700;DHT22;847;48.058;7.810;2023-04-25T07:01:15;9.00;99.00
1700;DHT22;847;48.058;7.810;2023-04-25T07:03:42;9.00;99.00
1700;DHT22;847;48.058;7.810;2023-04-25T07:06:10;9.10;99.00
1700;DHT22;847;48.058;7.810;2023-04-25T07:08:39;9.00;99.00
1700;DHT22;847;48.058;7.810;2023-04-25T07:11:06;9.00;99.00
1700;DHT22;847;48.058;7.810;2023-04-25T07:13:33;9.10;99.00
1700;DHT22;847;48.058;7.810;2023-04-25T07:16:00;9.10;99.00
1700;DHT22;847;48.058;7.810;2023-04-25T07:18:26;9.10;99.00
1700;DHT22;847;48.058;7.810;2023-04-25T07:20:53;9.10;99.00
1700;DHT22;847;48.058;7.810;2023-04-25T07:23:21;9.10;99.00
1700;DHT22;847;48.058;7.810;2023-04-25T07:25:48;9.00;99.00
1700;DHT22;847;48.058;7.810;2023-04-25T07:28:15;9.10;99.00
1700;DHT22;847;48.058;7.810;2023-04-25T07:30:42;9.10;99.00
1700;DHT22;847;48.058;7.810;2023-04-25T07:33:08;9.00;99.00
1700;DHT22;847;48.058;7.810;2023-04-25T07:35:35;9.10;99.00
1700;DHT22;847;48.058;7.810;2023-04-25T07:38:02;9.10;99.00
1700;DHT22;847;48.058;7.810;2023-04-25T07:40:30;9.10;99.00
1700;DHT22;847;48.058;7.810;2023-04-25T07:42:57;9.10;99.00
1700;DHT22;847;48.058;7.810;2023-04-25T07:45:24;9.10;99.00
1700;DHT22;847;48.058;7.810;2023-04-25T07:47:51;9.00;99.00
1700;DHT22;847;48.058;7.810;2023-04-25T07:50:17;9.10;99.00
1700;DHT22;847;48.058;7.810;2023-04-25T07:52:45;9.20;99.00
1700;DHT22;847;48.058;7.810;2023-04-25T07:55:12;9.20;99.00
1700;DHT22;847;48.058;7.810;2023-04-25T07:57:40;9.20;99.00
1700;DHT22;847;48.058;7.810;2023-04-25T08:00:07;9.30;99.00
1700;DHT22;847;48.058;7.810;2023-04-25T08:02:37;9.30;99.00
1700;DHT22;847;48.058;7.810;2023-04-25T08:05:04;9.40;99.00
1700;DHT22;847;48.058;7.810;2023-04-25T08:07:33;9.30;99.00
1700;DHT22;847;48.058;7.810;2023-04-25T08:10:00;9.30;99.00
1700;DHT22;847;48.058;7.810;2023-04-25T08:12:26;9.40;99.00
1700;DHT22;847;48.058;7.810;2023-04-25T08:14:57;9.40;99.00
1700;DHT22;847;48.058;7.810;2023-04-25T08:17:24;9.50;99.00
1700;DHT22;847;48.058;7.810;2023-04-25T08:19:50;9.50;99.00
1700;DHT22;847;48.058;7.810;2023-04-25T08:22:17;9.40;99.00
1700;DHT22;847;48.058;7.810;2023-04-25T08:24:44;9.40;99.00
1700;DHT22;847;48.058;7.810;2023-04-25T08:27:11;9.50;99.00
1700;DHT22;847;48.058;7.810;2023-04-25T08:29:37;9.50;99.00
1700;DHT22;847;48.058;7.810;2023-04-25T08:32:05;9.50;99.00
1700;DHT22;847;48.058;7.810;2023-04-25T08:34:32;9.50;99.00
1700;DHT22;847;48.058;7.810;2023-04-25T08:36:59;9.50;99.00
1700;DHT22;847;48.058;7.810;2023-04-25T08:39:26;9.50;99.00
1700;DHT22;847;48.058;7.810;2023-04-25T08:41:53;9.50;99.00
1700;DHT22;847;48.058;7.810;2023-04-25T08:44:19;9.50;99.00
1700;DHT22;847;48.058;7.810;2023-04-25T08:46:47;9.50;99.00
1700;DHT22;847;48.058;7.810;2023-04-25T08:49:17;9.50;99.00
1700;DHT22;847;48.058;7.810;2023-04-25T08:51:45;9.50;99.00
1700;DHT22;847;48.058;7.810;2023-04-25T08:54:14;9.50;99.00
1700;DHT22;847;48.058;7.810;2023-04-25T08:56:43;9.60;99.00
1700;DHT22;847;48.058;7.810;2023-04-25T08:59:11;9.50;99.00
1700;DHT22;847;48.058;7.810;2023-04-25T09:01:41;9.60;99.00
1700;DHT22;847;48.058;7.810;2023-04-25T09:04:08;9.60;99.00
1700;DHT22;847;48.058;7.810;2023-04-25T09:06:36;9.60;99.00
1700;DHT22;847;48.058;7.810;2023-04-25T09:09:04;9.60;99.00
1700;DHT22;847;48.058;7.810;2023-04-25T09:11:31;9.60;99.00
1700;DHT22;847;48.058;7.810;2023-04-25T09:14:15;9.50;99.00
1700;DHT22;847;48.058;7.810;2023-04-25T09:17:01;9.50;99.00
1700;DHT22;847;48.058;7.810;2023-04-25T09:19:29;9.50;99.00
1700;DHT22;847;48.058;7.810;2023-04-25T09:21:59;9.50;99.00
1700;DHT22;847;48.058;7.810;2023-04-25T09:24:34;9.50;99.00
1700;DHT22;847;48.058;7.810;2023-04-25T09:27:03;9.60;99.00
1700;DHT22;847;48.058;7.810;2023-04-25T09:29:31;9.60;99.00
1700;DHT22;847;48.058;7.810;2023-04-25T09:32:16;9.60;99.00
1700;DHT22;847;48.058;7.810;2023-04-25T09:34:44;9.70;99.00
1700;DHT22;847;48.058;7.810;2023-04-25T09:37:17;9.70;99.00
1700;DHT22;847;48.058;7.810;2023-04-25T09:39:46;9.70;99.00
1700;DHT22;847;48.058;7.810;2023-04-25T09:42:13;9.60;99.00
1700;DHT22;847;48.058;7.810;2023-04-25T09:44:43;9.60;99.00
1700;DHT22;847;48.058;7.810;2023-04-25T09:47:10;9.70;99.00
1700;DHT22;847;48.058;7.810;2023-04-25T09:49:39;9.70;99.00
1700;DHT22;847;48.058;7.810;2023-04-25T09:52:07;9.70;99.00
1700;DHT22;847;48.058;7.810;2023-04-25T09:54:36;9.70;99.00
1700;DHT22;847;48.058;7.810;2023-04-25T09:57:09;9.70;99.00
1700;DHT22;847;48.058;7.810;2023-04-25T09:59:39;9.70;99.00
1700;DHT22;847;48.058;7.810;2023-04-25T10:02:07;9.70;99.00
1700;DHT22;847;48.058;7.810;2023-04-25T10:04:35;9.60;99.00
1700;DHT22;847;48.058;7.810;2023-04-25T10:07:03;9.60;99.00
1700;DHT22;847;48.058;7.810;2023-04-25T10:09:32;9.70;99.00
1700;DHT22;847;48.058;7.810;2023-04-25T10:12:01;9.70;99.00
1700;DHT22;847;48.058;7.810;2023-04-25T10:14:29;9.80;99.00
1700;DHT22;847;48.058;7.810;2023-04-25T10:16:57;9.80;99.00
1700;DHT22;847;48.058;7.810;2023-04-25T10:19:25;9.80;99.00
1700;DHT22;847;48.058;7.810;2023-04-25T10:21:54;9.80;99.00
1700;DHT22;847;48.058;7.810;2023-04-25T10:24:22;9.80;99.00
1700;DHT22;847;48.058;7.810;2023-04-25T10:26:50;9.90;99.00
1700;DHT22;847;48.058;7.810;2023-04-25T10:29:24;9.90;99.00
1700;DHT22;847;48.058;7.810;2023-04-25T10:31:51;9.90;99.00
1700;DHT22;847;48.058;7.810;2023-04-25T10:34:18;9.90;99.00
1700;DHT22;847;48.058;7.810;2023-04-25T10:36:50;10.00;99.00
1700;DHT22;847;48.058;7.810;2023-04-25T10:39:22;10.00;99.00
1700;DHT22;847;48.058;7.810;2023-04-25T10:41:53;10.10;99.00
1700;DHT22;847;48.058;7.810;2023-04-25T10:44:25;10.20;99.00
1700;DHT22;847;48.058;7.810;2023-04-25T10:46:54;10.30;99.00
1700;DHT22;847;48.058;7.810;2023-04-25T10:49:41;10.30;99.00
1700;DHT22;847;48.058;7.810;2023-04-25T10:52:19;10.20;99.00
1700;DHT22;847;48.058;7.810;2023-04-25T10:54:52;10.20;99.00
1700;DHT22;847;48.058;7.810;2023-04-25T10:57:30;10.30;99.00
1700;DHT22;847;48.058;7.810;2023-04-25T11:00:05;10.40;99.00
1700;DHT22;847;48.058;7.810;2023-04-25T11:02:37;10.40;99.00
1700;DHT22;847;48.058;7.810;2023-04-25T11:05:05;10.40;99.00
1700;DHT22;847;48.058;7.810;2023-04-25T11:07:37;10.40;99.00
1700;DHT22;847;48.058;7.810;2023-04-25T11:10:05;10.40;99.00
1700;DHT22;847;48.058;7.810;2023-04-25T11:12:32;10.50;99.00
1700;DHT22;847;48.058;7.810;2023-04-25T11:15:02;10.70;99.00
1700;DHT22;847;48.058;7.810;2023-04-25T11:17:29;10.90;99.00
1700;DHT22;847;48.058;7.810;2023-04-25T11:19:56;10.90;99.00
1700;DHT22;847;48.058;7.810;2023-04-25T11:22:26;10.80;97.90
1700;DHT22;847;48.058;7.810;2023-04-25T11:24:56;10.80;98.40
1700;DHT22;847;48.058;7.810;2023-04-25T11:27:23;10.90;97.60
1700;DHT22;847;48.058;7.810;2023-04-25T11:29:51;10.90;97.40
1700;DHT22;847;48.058;7.810;2023-04-25T11:32:19;10.90;97.00
1700;DHT22;847;48.058;7.810;2023-04-25T11:34:46;10.90;97.40
1700;DHT22;847;48.058;7.810;2023-04-25T11:37:14;10.80;96.20
1700;DHT22;847;48.058;7.810;2023-04-25T11:39:44;10.90;97.10
1700;DHT22;847;48.058;7.810;2023-04-25T11:42:12;10.90;97.30
1700;DHT22;847;48.058;7.810;2023-04-25T11:44:39;10.90;96.40
1700;DHT22;847;48.058;7.810;2023-04-25T11:47:06;11.00;97.30
1700;DHT22;847;48.058;7.810;2023-04-25T11:49:35;11.00;97.50
1700;DHT22;847;48.058;7.810;2023-04-25T11:52:02;11.10;99.00
1700;DHT22;847;48.058;7.810;2023-04-25T11:54:29;11.10;99.00
1700;DHT22;847;48.058;7.810;2023-04-25T11:56:55;11.10;99.00
1700;DHT22;847;48.058;7.810;2023-04-25T11:59:24;11.30;99.00
1700;DHT22;847;48.058;7.810;2023-04-25T12:01:52;11.40;98.80
1700;DHT22;847;48.058;7.810;2023-04-25T12:04:20;11.40;97.00
1700;DHT22;847;48.058;7.810;2023-04-25T12:06:50;11.30;94.30
1700;DHT22;847;48.058;7.810;2023-04-25T12:09:19;11.30;92.60
1700;DHT22;847;48.058;7.810;2023-04-25T12:11:52;11.40;92.60
1700;DHT22;847;48.058;7.810;2023-04-25T12:14:23;11.40;92.00
1700;DHT22;847;48.058;7.810;2023-04-25T12:16:50;11.50;93.70
1700;DHT22;847;48.058;7.810;2023-04-25T12:19:19;11.60;90.50
1700;DHT22;847;48.058;7.810;2023-04-25T12:21:48;11.50;88.20
1700;DHT22;847;48.058;7.810;2023-04-25T12:24:17;11.50;88.20
1700;DHT22;847;48.058;7.810;2023-04-25T12:26:48;11.50;87.30
1700;DHT22;847;48.058;7.810;2023-04-25T12:29:17;11.60;90.20
1700;DHT22;847;48.058;7.810;2023-04-25T12:31:43;11.70;88.30
1700;DHT22;847;48.058;7.810;2023-04-25T12:34:12;12.00;88.50
1700;DHT22;847;48.058;7.810;2023-04-25T12:36:38;12.10;84.90
1700;DHT22;847;48.058;7.810;2023-04-25T12:39:07;12.10;84.30
1700;DHT22;847;48.058;7.810;2023-04-25T12:41:34;12.20;86.00
1700;DHT22;847;48.058;7.810;2023-04-25T12:44:00;12.30;89.50
1700;DHT22;847;48.058;7.810;2023-04-25T12:46:27;12.30;89.40
1700;DHT22;847;48.058;7.810;2023-04-25T12:48:54;12.40;90.70
1700;DHT22;847;48.058;7.810;2023-04-25T12:51:22;12.50;91.10
1700;DHT22;847;48.058;7.810;2023-04-25T12:53:50;12.70;87.70
1700;DHT22;847;48.058;7.810;2023-04-25T12:56:18;12.90;89.10
1700;DHT22;847;48.058;7.810;2023-04-25T12:58:46;12.90;85.50
1700;DHT22;847;48.058;7.810;2023-04-25T13:01:13;12.90;87.50
1700;DHT22;847;48.058;7.810;2023-04-25T13:03:40;12.80;87.60
1700;DHT22;847;48.058;7.810;2023-04-25T13:06:07;12.80;86.40
1700;DHT22;847;48.058;7.810;2023-04-25T13:08:34;12.70;87.20
1700;DHT22;847;48.058;7.810;2023-04-25T13:11:02;12.60;88.00
1700;DHT22;847;48.058;7.810;2023-04-25T13:13:31;12.30;89.20
1700;DHT22;847;48.058;7.810;2023-04-25T13:15:59;11.60;90.50
1700;DHT22;847;48.058;7.810;2023-04-25T13:18:27;11.40;91.20
1700;DHT22;847;48.058;7.810;2023-04-25T13:20:54;11.20;92.20
1700;DHT22;847;48.058;7.810;2023-04-25T13:23:20;11.00;92.20
1700;DHT22;847;48.058;7.810;2023-04-25T13:25:47;10.90;93.10
1700;DHT22;847;48.058;7.810;2023-04-25T13:28:14;11.00;93.20
1700;DHT22;847;48.058;7.810;2023-04-25T13:30:43;11.10;93.80
1700;DHT22;847;48.058;7.810;2023-04-25T13:33:09;11.10;93.40
1700;DHT22;847;48.058;7.810;2023-04-25T13:35:37;11.00;93.50
1700;DHT22;847;48.058;7.810;2023-04-25T13:38:04;11.20;94.50
1700;DHT22;847;48.058;7.810;2023-04-25T13:40:31;11.30;94.00
1700;DHT22;847;48.058;7.810;2023-04-25T13:42:58;11.20;93.10
1700;DHT22;847;48.058;7.810;2023-04-25T13:45:25;11.30;93.40
1700;DHT22;847;48.058;7.810;2023-04-25T13:47:53;11.30;91.60
1700;DHT22;847;48.058;7.810;2023-04-25T13:50:20;11.10;91.50
1700;DHT22;847;48.058;7.810;2023-04-25T13:52:47;11.20;92.40
1700;DHT22;847;48.058;7.810;2023-04-25T13:55:14;11.20;92.50
1700;DHT22;847;48.058;7.810;2023-04-25T13:57:41;11.30;92.90
1700;DHT22;847;48.058;7.810;2023-04-25T14:00:08;11.40;92.50
1700;DHT22;847;48.058;7.810;2023-04-25T14:02:36;11.40;92.10
1700;DHT22;847;48.058;7.810;2023-04-25T14:05:05;11.50;92.60
1700;DHT22;847;48.058;7.810;2023-04-25T14:07:32;11.60;91.70
1700;DHT22;847;48.058;7.810;2023-04-25T14:10:00;11.60;91.20
1700;DHT22;847;48.058;7.810;2023-04-25T14:12:27;11.50;90.40
1700;DHT22;847;48.058;7.810;2023-04-25T14:14:53;11.50;91.00
1700;DHT22;847;48.058;7.810;2023-04-25T14:17:20;11.50;90.60
1700;DHT22;847;48.058;7.810;2023-04-25T14:19:47;11.60;90.60
1700;DHT22;847;48.058;7.810;2023-04-25T14:22:15;11.50;89.40
1700;DHT22;847;48.058;7.810;2023-04-25T14:24:42;11.50;89.90
1700;DHT22;847;48.058;7.810;2023-04-25T14:27:09;11.60;89.50
1700;DHT22;847;48.058;7.810;2023-04-25T14:29:35;11.70;89.70
1700;DHT22;847;48.058;7.810;2023-04-25T14:32:02;11.70;90.30
1700;DHT22;847;48.058;7.810;2023-04-25T14:34:30;11.80;90.20
1700;DHT22;847;48.058;7.810;2023-04-25T14:36:57;11.70;89.40
1700;DHT22;847;48.058;7.810;2023-04-25T14:39:25;11.80;89.90
1700;DHT22;847;48.058;7.810;2023-04-25T14:41:52;11.70;88.70
1700;DHT22;847;48.058;7.810;2023-04-25T14:44:19;11.60;88.90
1700;DHT22;847;48.058;7.810;2023-04-25T14:46:45;11.50;90.10
1700;DHT22;847;48.058;7.810;2023-04-25T14:49:13;11.50;91.00
1700;DHT22;847;48.058;7.810;2023-04-25T14:51:40;11.20;90.50
1700;DHT22;847;48.058;7.810;2023-04-25T14:54:06;11.00;92.60
1700;DHT22;847;48.058;7.810;2023-04-25T14:56:34;10.80;94.80
1700;DHT22;847;48.058;7.810;2023-04-25T14:59:01;10.70;95.70
1700;DHT22;847;48.058;7.810;2023-04-25T15:01:28;10.40;96.60
1700;DHT22;847;48.058;7.810;2023-04-25T15:03:55;10.30;97.70
1700;DHT22;847;48.058;7.810;2023-04-25T15:06:22;10.20;99.00
1700;DHT22;847;48.058;7.810;2023-04-25T15:08:51;10.20;99.00
1700;DHT22;847;48.058;7.810;2023-04-25T15:11:18;10.20;99.00
1700;DHT22;847;48.058;7.810;2023-04-25T15:13:47;10.10;99.00
1700;DHT22;847;48.058;7.810;2023-04-25T15:16:13;10.10;99.00
1700;DHT22;847;48.058;7.810;2023-04-25T15:18:40;10.20;99.00
1700;DHT22;847;48.058;7.810;2023-04-25T15:21:07;10.30;99.00
1700;DHT22;847;48.058;7.810;2023-04-25T15:23:34;10.30;99.00
1700;DHT22;847;48.058;7.810;2023-04-25T15:26:00;10.40;99.00
1700;DHT22;847;48.058;7.810;2023-04-25T15:28:27;10.70;99.00
1700;DHT22;847;48.058;7.810;2023-04-25T15:30:55;10.70;97.30
1700;DHT22;847;48.058;7.810;2023-04-25T15:33:22;10.80;98.60
1700;DHT22;847;48.058;7.810;2023-04-25T15:35:49;10.80;98.30
1700;DHT22;847;48.058;7.810;2023-04-25T15:38:16;10.90;97.90
1700;DHT22;847;48.058;7.810;2023-04-25T15:40:43;10.90;96.80
1700;DHT22;847;48.058;7.810;2023-04-25T15:43:10;10.90;96.80
1700;DHT22;847;48.058;7.810;2023-04-25T15:45:40;10.70;96.10
1700;DHT22;847;48.058;7.810;2023-04-25T15:48:08;10.70;96.70
1700;DHT22;847;48.058;7.810;2023-04-25T15:50:35;10.80;96.70
1700;DHT22;847;48.058;7.810;2023-04-25T15:53:02;10.80;97.10
1700;DHT22;847;48.058;7.810;2023-04-25T15:55:29;10.70;94.80
1700;DHT22;847;48.058;7.810;2023-04-25T15:57:56;10.70;95.00
1700;DHT22;847;48.058;7.810;2023-04-25T16:00:23;10.80;95.00
1700;DHT22;847;48.058;7.810;2023-04-25T16:02:49;10.90;95.20
1700;DHT22;847;48.058;7.810;2023-04-25T16:05:18;11.00;94.70
1700;DHT22;847;48.058;7.810;2023-04-25T16:07:45;11.00;94.90
1700;DHT22;847;48.058;7.810;2023-04-25T16:10:13;11.10;94.70
1700;DHT22;847;48.058;7.810;2023-04-25T16:12:41;11.10;94.40
1700;DHT22;847;48.058;7.810;2023-04-25T16:15:08;11.10;93.80
1700;DHT22;847;48.058;7.810;2023-04-25T16:17:36;11.10;94.20
1700;DHT22;847;48.058;7.810;2023-04-25T16:20:03;11.20;94.10
1700;DHT22;847;48.058;7.810;2023-04-25T16:22:35;11.10;93.30
1700;DHT22;847;48.058;7.810;2023-04-25T16:25:02;11.20;93.20
1700;DHT22;847;48.058;7.810;2023-04-25T16:27:30;11.10;92.20